Time;durP1;ratioP1;P1;durP2;ratioP2;P2;SDS_P1;SDS_P2;PMS_P1;PMS_P2;Temp;Humidity;BMP_temperature;BMP_pressure;BME280_temperature;BME280_humidity;BME280_pressure;Samples;Min_cycle;Max_cycle;Signal;HPM_P1;HPM_P2
2021/09/18 00:02:03;;;;;;;;;;;;;;;16.55;73.56;99930.28;5036699;28;19928;-62
2021/09/18 00:04:49;;;;;;;;;;;;;;;16.54;73.64;99934.63;5036762;28;20035;-62
2021/09/18 00:07:34;;;;;;;;;;;;;;;16.54;73.77;99932.03;5036379;28;20391;-61
2021/09/18 00:10:20;;;;;;;;;;;;;;;16.53;73.73;99929.44;5036907;28;20403;-62
2021/09/18 00:13:04;;;;;;;;;;;;;;;16.53;73.74;99937.28;5035913;28;20403;-62
2021/09/18 00:15:51;;;;;;;;;;;;;;;16.52;73.62;99941.63;5037164;28;19928;-62
2021/09/18 00:18:35;;;;;;;;;;;;;;;16.51;73.53;99932.03;5036573;28;19972;-62
2021/09/18 00:21:19;;;;;;;;;;;;;;;16.50;73.58;99937.31;5036675;28;20440;-61
2021/09/18 00:24:06;;;;;;;;;;;;;;;16.50;73.64;99937.31;5036604;28;20040;-62
2021/09/18 00:26:50;;;;;;;;;;;;;;;16.48;73.75;99939.06;5036692;28;20431;-62
2021/09/18 00:29:34;;;;;;;;;;;;;;;16.48;73.66;99941.69;5035519;28;19928;-62
2021/09/18 00:32:17;;;;;;;;;;;;;;;16.46;73.72;99939.09;5035821;28;19929;-61
2021/09/18 00:35:01;;;;;;;;;;;;;;;16.46;73.75;99935.59;5036380;28;20414;-62
2021/09/18 00:37:47;;;;;;;;;;;;;;;16.43;73.75;99926.88;5036398;28;19972;-61
2021/09/18 00:40:36;;;;;;;;;;;;;;;16.42;73.65;99930.41;5049644;28;19979;-62
2021/09/18 00:43:21;;;;;;;;;;;;;;;16.42;73.49;99937.38;5036697;28;20300;-61
2021/09/18 00:46:08;;;;;;;;;;;;;;;16.41;73.59;99928.69;5049403;28;20410;-62
2021/09/18 00:48:52;;;;;;;;;;;;;;;16.41;73.51;99935.66;5035529;28;19928;-62
2021/09/18 00:51:39;;;;;;;;;;;;;;;16.40;73.47;99936.53;5036175;28;19927;-61
2021/09/18 00:54:24;;;;;;;;;;;;;;;16.39;73.53;99929.56;5035030;28;19944;-62
2021/09/18 00:57:08;;;;;;;;;;;;;;;16.39;73.50;99940.03;5035833;28;20331;-62
2021/09/18 00:59:52;;;;;;;;;;;;;;;16.37;73.48;99928.69;5035690;28;19928;-61
2021/09/18 01:02:38;;;;;;;;;;;;;;;16.37;73.54;99940.03;5035879;28;19927;-62
2021/09/18 01:05:22;;;;;;;;;;;;;;;16.36;73.50;99934.81;5035235;28;19927;-62
2021/09/18 01:08:06;;;;;;;;;;;;;;;16.36;73.73;99934.81;5035366;28;19948;-61
2021/09/18 01:10:51;;;;;;;;;;;;;;;16.35;73.73;99933.09;5035781;28;19928;-61
2021/09/18 01:13:37;;;;;;;;;;;;;;;16.35;73.54;99938.34;5034918;28;19932;-62
2021/09/18 01:16:24;;;;;;;;;;;;;;;16.34;73.64;99932.22;5034736;28;19928;-62
2021/09/18 01:19:11;;;;;;;;;;;;;;;16.33;73.71;99940.09;5034617;28;20035;-61
2021/09/18 01:21:55;;;;;;;;;;;;;;;16.31;73.64;99934.88;5034211;28;19932;-62
2021/09/18 01:24:44;;;;;;;;;;;;;;;16.30;73.70;99935.75;5035575;28;19928;-62
2021/09/18 01:27:28;;;;;;;;;;;;;;;16.30;73.52;99935.75;5034436;28;19928;-62
2021/09/18 01:30:28;;;;;;;;;;;;;;;16.28;73.57;99927.03;5035317;28;19928;-62
2021/09/18 01:33:12;;;;;;;;;;;;;;;16.28;73.48;99933.16;5034757;28;19967;-62
2021/09/18 01:35:56;;;;;;;;;;;;;;;16.29;73.61;99940.13;5035080;28;20022;-63
2021/09/18 01:38:42;;;;;;;;;;;;;;;16.29;73.62;99934.88;5035112;28;19928;-63
2021/09/18 01:41:32;;;;;;;;;;;;;;;16.28;73.60;99937.50;5035229;28;20391;-63
2021/09/18 01:44:17;;;;;;;;;;;;;;;16.27;73.43;99935.78;5033863;28;19928;-62
2021/09/18 01:47:01;;;;;;;;;;;;;;;16.26;73.41;99947.97;5034683;28;19963;-62
2021/09/18 01:49:45;;;;;;;;;;;;;;;16.26;73.46;99947.13;5035082;28;19959;-62
2021/09/18 01:52:35;;;;;;;;;;;;;;;16.24;73.42;99948.88;5034713;28;19967;-61
2021/09/18 01:55:20;;;;;;;;;;;;;;;16.23;73.54;99949.78;5047806;28;20299;-62
2021/09/18 01:58:04;;;;;;;;;;;;;;;16.22;73.38;99934.97;5035270;28;20454;-62
2021/09/18 02:00:52;;;;;;;;;;;;;;;16.21;73.57;99939.31;5035201;28;19928;-61
2021/09/18 02:03:39;;;;;;;;;;;;;;;16.19;73.36;99938.47;5034042;28;19928;-62
2021/09/18 02:06:23;;;;;;;;;;;;;;;16.21;73.42;99931.47;5033788;28;19962;-62
2021/09/18 02:09:07;;;;;;;;;;;;;;;16.21;73.42;99938.44;5033659;28;20398;-63
2021/09/18 02:11:51;;;;;;;;;;;;;;;16.21;73.57;99930.59;5033407;28;19975;-63
2021/09/18 02:14:36;;;;;;;;;;;;;;;16.22;73.43;99927.13;5034062;28;19931;-63
2021/09/18 02:17:20;;;;;;;;;;;;;;;16.20;73.57;99926.25;5033751;28;19928;-63
2021/09/18 02:20:08;;;;;;;;;;;;;;;16.18;73.40;99921.06;5033810;28;19970;-63
2021/09/18 02:22:52;;;;;;;;;;;;;;;16.18;73.44;99921.06;5033230;28;19928;-63
2021/09/18 02:25:36;;;;;;;;;;;;;;;16.16;73.56;99924.53;5034395;28;19943;-63
2021/09/18 02:28:20;;;;;;;;;;;;;;;16.17;73.38;99916.72;5033980;28;19944;-63
2021/09/18 02:31:06;;;;;;;;;;;;;;;16.17;73.29;99913.22;5034066;28;20442;-63
2021/09/18 02:33:53;;;;;;;;;;;;;;;16.16;73.52;99916.69;5034669;28;19928;-63
2021/09/18 02:36:42;;;;;;;;;;;;;;;16.15;73.11;99908.00;5034381;28;19935;-63
2021/09/18 02:39:28;;;;;;;;;;;;;;;16.15;73.55;99908.00;5033060;28;19971;-63
2021/09/18 02:42:14;;;;;;;;;;;;;;;16.13;73.42;99908.00;5034517;28;20067;-63
2021/09/18 02:44:59;;;;;;;;;;;;;;;16.13;73.49;99908.00;5033065;28;20039;-62
2021/09/18 02:47:43;;;;;;;;;;;;;;;16.12;73.39;99908.03;5033961;28;19990;-63
2021/09/18 02:50:27;;;;;;;;;;;;;;;16.11;73.31;99919.38;5034066;28;19928;-63
2021/09/18 02:53:11;;;;;;;;;;;;;;;16.06;73.36;99908.06;5033696;28;20029;-63
2021/09/18 02:55:55;;;;;;;;;;;;;;;16.06;73.59;99908.94;5034138;28;19970;-63
2021/09/18 02:58:41;;;;;;;;;;;;;;;16.05;73.36;99901.09;5047392;28;19975;-63
2021/09/18 03:01:28;;;;;;;;;;;;;;;16.04;73.25;99896.78;5033141;28;19991;-63
2021/09/18 03:04:12;;;;;;;;;;;;;;;16.03;73.40;99897.66;5033776;28;19959;-63
2021/09/18 03:06:56;;;;;;;;;;;;;;;16.00;73.18;99898.53;5033739;28;20441;-63
2021/09/18 03:09:40;;;;;;;;;;;;;;;15.99;73.36;99891.56;5034004;28;19928;-63
2021/09/18 03:12:24;;;;;;;;;;;;;;;15.97;73.22;99894.22;5033729;28;19928;-63
2021/09/18 03:15:09;;;;;;;;;;;;;;;15.98;73.32;99897.69;5033081;28;20283;-63
2021/09/18 03:17:53;;;;;;;;;;;;;;;15.95;73.23;99895.97;5032787;28;19975;-63
2021/09/18 03:20:39;;;;;;;;;;;;;;;15.96;73.15;99886.41;5033049;28;20296;-63
2021/09/18 03:23:23;;;;;;;;;;;;;;;15.94;73.14;99890.78;5033530;28;19944;-63
2021/09/18 03:26:07;;;;;;;;;;;;;;;15.93;72.98;99891.66;5034091;28;19928;-63
2021/09/18 03:28:56;;;;;;;;;;;;;;;15.93;73.23;99897.72;5033805;28;19983;-63
2021/09/18 03:31:43;;;;;;;;;;;;;;;15.92;73.12;99885.53;5032831;28;20031;-63
2021/09/18 03:34:27;;;;;;;;;;;;;;;15.92;73.28;99888.16;5033567;28;19927;-63
2021/09/18 03:37:17;;;;;;;;;;;;;;;15.92;73.12;99897.75;5033871;28;19928;-63
2021/09/18 03:40:02;;;;;;;;;;;;;;;15.91;73.33;99899.47;5033553;28;20395;-63
2021/09/18 03:42:46;;;;;;;;;;;;;;;15.90;73.10;99900.34;5033616;28;19928;-63
2021/09/18 03:45:30;;;;;;;;;;;;;;;15.90;73.09;99902.97;5033894;28;20335;-63
2021/09/18 03:48:16;;;;;;;;;;;;;;;15.89;73.17;99903.00;5033593;28;19975;-64
2021/09/18 03:51:01;;;;;;;;;;;;;;;15.88;73.01;99902.16;5032866;28;19928;-62
2021/09/18 03:53:45;;;;;;;;;;;;;;;15.88;73.11;99899.53;5033381;28;19928;-63
2021/09/18 03:56:29;;;;;;;;;;;;;;;15.86;73.08;99903.91;5033287;28;19959;-61
2021/09/18 03:59:13;;;;;;;;;;;;;;;15.86;73.12;99901.28;5046559;28;19931;-61
2021/09/18 04:01:59;;;;;;;;;;;;;;;15.85;73.17;99902.16;5032395;28;19944;-63
2021/09/18 04:04:44;;;;;;;;;;;;;;;15.83;72.94;99902.13;5032938;28;19928;-62
2021/09/18 04:07:27;;;;;;;;;;;;;;;15.82;72.94;99902.16;5048780;28;19947;-62
2021/09/18 04:10:11;;;;;;;;;;;;;;;15.79;73.13;99905.66;5036311;28;20395;-62
2021/09/18 04:12:57;;;;;;;;;;;;;;;15.80;72.88;99909.97;5036914;28;19932;-63
2021/09/18 04:15:42;;;;;;;;;;;;;;;15.78;73.09;99906.53;5049743;28;19927;-62
2021/09/18 04:18:26;;;;;;;;;;;;;;;15.77;72.92;99911.75;5050070;28;19987;-62
2021/09/18 04:21:10;;;;;;;;;;;;;;;15.76;73.10;99910.91;5036685;28;19936;-61
2021/09/18 04:23:54;;;;;;;;;;;;;;;15.76;72.94;99908.28;5037013;28;19950;-62
2021/09/18 04:26:38;;;;;;;;;;;;;;;15.74;72.90;99912.66;5036518;28;19963;-61
2021/09/18 04:29:22;;;;;;;;;;;;;;;15.74;72.89;99909.16;5036145;28;19975;-62
2021/09/18 04:32:06;;;;;;;;;;;;;;;15.73;73.04;99913.53;5049814;28;19947;-62
2021/09/18 04:34:50;;;;;;;;;;;;;;;15.71;72.95;99912.66;5035878;28;19928;-62
2021/09/18 04:37:34;;;;;;;;;;;;;;;15.72;72.92;99918.78;5036139;28;19928;-62
2021/09/18 04:40:18;;;;;;;;;;;;;;;15.70;73.07;99908.31;5036256;28;19928;-62
2021/09/18 04:43:01;;;;;;;;;;;;;;;15.70;73.03;99913.56;5049252;28;19928;-62
2021/09/18 04:45:45;;;;;;;;;;;;;;;15.70;72.96;99915.31;5036005;28;20327;-62
2021/09/18 04:48:29;;;;;;;;;;;;;;;15.69;72.81;99919.66;5036315;28;19928;-62
2021/09/18 04:51:13;;;;;;;;;;;;;;;15.68;72.88;99923.13;5036111;28;19928;-62
2021/09/18 04:54:01;;;;;;;;;;;;;;;15.69;72.91;99927.50;5035790;28;19928;-62
2021/09/18 04:56:47;;;;;;;;;;;;;;;15.68;72.83;99925.75;5036353;28;19928;-62
2021/09/18 04:59:33;;;;;;;;;;;;;;;15.67;72.95;99924.91;5049404;28;19944;-62
2021/09/18 05:02:17;;;;;;;;;;;;;;;15.66;72.97;99931.00;5036188;28;20327;-62
2021/09/18 05:05:02;;;;;;;;;;;;;;;15.67;72.96;99929.25;5035684;28;20304;-62
2021/09/18 05:07:46;;;;;;;;;;;;;;;15.66;72.65;99936.22;5035718;28;19928;-62
2021/09/18 05:10:30;;;;;;;;;;;;;;;15.65;72.84;99938.81;5035072;28;20012;-61
2021/09/18 05:13:14;;;;;;;;;;;;;;;15.64;72.83;99930.13;5035246;28;19975;-62
2021/09/18 05:15:57;;;;;;;;;;;;;;;15.65;72.92;99936.22;5035730;28;20335;-62
2021/09/18 05:18:41;;;;;;;;;;;;;;;15.64;72.93;99937.97;5034882;28;20365;-62
2021/09/18 05:21:26;;;;;;;;;;;;;;;15.66;72.96;99935.34;5035694;28;19951;-62
2021/09/18 05:24:13;;;;;;;;;;;;;;;15.66;73.02;99941.44;5034566;28;19928;-62
2021/09/18 05:26:57;;;;;;;;;;;;;;;15.67;72.76;99942.31;5033985;28;19948;-62
2021/09/18 05:29:43;;;;;;;;;;;;;;;15.67;72.79;99943.19;5035294;28;19928;-62
2021/09/18 05:32:30;;;;;;;;;;;;;;;15.67;72.96;99944.91;5034931;28;19971;-62
2021/09/18 05:35:14;;;;;;;;;;;;;;;15.66;72.84;99943.19;5034897;28;20418;-62
2021/09/18 05:37:58;;;;;;;;;;;;;;;15.65;73.09;99936.22;5035174;28;19929;-64
2021/09/18 05:40:42;;;;;;;;;;;;;;;15.65;73.01;99941.44;5035528;28;20019;-62
2021/09/18 05:43:29;;;;;;;;;;;;;;;15.65;73.02;99939.72;5035764;28;20287;-64
2021/09/18 05:46:13;;;;;;;;;;;;;;;15.64;72.89;99945.81;5048587;28;19952;-63
2021/09/18 05:48:57;;;;;;;;;;;;;;;15.63;72.94;99951.91;5035440;28;19967;-63
2021/09/18 05:51:43;;;;;;;;;;;;;;;15.63;72.91;99949.28;5034548;28;19944;-63
2021/09/18 05:54:27;;;;;;;;;;;;;;;15.63;72.76;99948.44;5034237;28;19928;-62
2021/09/18 05:57:14;;;;;;;;;;;;;;;15.63;73.01;99949.28;5034571;28;20316;-62
2021/09/18 05:59:57;;;;;;;;;;;;;;;15.64;72.83;99955.41;5035165;28;19967;-61
2021/09/18 06:02:41;;;;;;;;;;;;;;;15.63;72.95;99953.66;5034454;28;19967;-62
2021/09/18 06:05:27;;;;;;;;;;;;;;;15.62;72.87;99954.53;5034283;28;20024;-64
2021/09/18 06:08:11;;;;;;;;;;;;;;;15.62;73.08;99957.16;5034557;28;20435;-62
2021/09/18 06:10:55;;;;;;;;;;;;;;;15.63;72.79;99969.34;5034590;28;19932;-64
2021/09/18 06:13:40;;;;;;;;;;;;;;;15.63;73.03;99970.19;5034621;28;20486;-63
2021/09/18 06:16:26;;;;;;;;;;;;;;;15.62;72.99;99967.59;5034986;28;19928;-61
2021/09/18 06:19:18;;;;;;;;;;;;;;;15.62;72.87;99971.06;5034572;28;20015;-62
2021/09/18 06:22:02;;;;;;;;;;;;;;;15.63;73.01;99958.91;5033907;28;19966;-62
2021/09/18 06:24:46;;;;;;;;;;;;;;;15.63;73.00;99961.50;5034705;28;19982;-61
2021/09/18 06:27:31;;;;;;;;;;;;;;;15.61;72.89;99969.34;5034714;28;20395;-63
2021/09/18 06:30:17;;;;;;;;;;;;;;;15.61;72.98;99963.25;5033826;28;20024;-62
2021/09/18 06:33:02;;;;;;;;;;;;;;;15.60;72.91;99967.59;5034277;28;19928;-62
2021/09/18 06:35:48;;;;;;;;;;;;;;;15.62;72.84;99967.59;5034265;28;20008;-62
2021/09/18 06:38:35;;;;;;;;;;;;;;;15.62;72.84;99973.69;5034231;28;19928;-62
2021/09/18 06:41:19;;;;;;;;;;;;;;;15.62;72.80;99973.69;5032962;28;20307;-63
2021/09/18 06:44:03;;;;;;;;;;;;;;;15.60;72.77;99980.66;5034422;28;20055;-63
2021/09/18 06:46:49;;;;;;;;;;;;;;;15.60;72.88;99975.44;5034017;28;20345;-63
2021/09/18 06:49:33;;;;;;;;;;;;;;;15.61;73.03;99977.16;5034015;28;19956;-63
2021/09/18 06:52:17;;;;;;;;;;;;;;;15.62;73.03;99973.69;5046603;28;19929;-62
2021/09/18 06:55:01;;;;;;;;;;;;;;;15.63;73.02;99983.25;5033747;28;19929;-62
2021/09/18 06:57:44;;;;;;;;;;;;;;;15.64;73.01;99976.31;5033515;28;20039;-61
2021/09/18 07:00:31;;;;;;;;;;;;;;;15.65;72.89;99973.66;5034024;28;19928;-62
2021/09/18 07:03:15;;;;;;;;;;;;;;;15.67;72.98;99978.88;5032880;28;20071;-62
2021/09/18 07:06:02;;;;;;;;;;;;;;;15.66;73.05;99983.25;5033405;28;19944;-62
2021/09/18 07:08:53;;;;;;;;;;;;;;;15.67;73.03;99984.97;5033244;28;20386;-62
2021/09/18 07:11:37;;;;;;;;;;;;;;;15.68;72.97;99984.09;5033030;28;19991;-62
2021/09/18 07:14:21;;;;;;;;;;;;;;;15.69;72.95;99982.34;5033353;28;19971;-63
2021/09/18 07:17:08;;;;;;;;;;;;;;;15.70;73.06;99984.09;5033384;28;20359;-63
2021/09/18 07:19:52;;;;;;;;;;;;;;;15.72;72.96;99984.94;5034043;28;19933;-63
2021/09/18 07:22:38;;;;;;;;;;;;;;;15.73;73.17;99977.97;5033800;28;19928;-63
2021/09/18 07:25:23;;;;;;;;;;;;;;;15.73;73.08;99997.13;5046844;28;19967;-64
2021/09/18 07:28:08;;;;;;;;;;;;;;;15.75;73.03;99987.56;5032970;28;19963;-63
2021/09/18 07:30:51;;;;;;;;;;;;;;;15.75;72.94;99979.72;5033673;28;19928;-63
2021/09/18 07:33:36;;;;;;;;;;;;;;;15.76;73.18;99989.28;5046323;28;19971;-61
2021/09/18 07:36:20;;;;;;;;;;;;;;;15.77;73.17;99988.41;5032660;28;20011;-62
2021/09/18 07:39:06;;;;;;;;;;;;;;;15.78;73.20;99990.16;5032633;28;19928;-62
2021/09/18 07:41:50;;;;;;;;;;;;;;;15.79;73.12;99989.28;5033953;28;19928;-62
2021/09/18 07:44:36;;;;;;;;;;;;;;;15.82;73.15;99993.59;5037489;28;20023;-62
2021/09/18 07:47:20;;;;;;;;;;;;;;;15.81;73.13;99997.94;5036567;28;19928;-62
2021/09/18 07:50:04;;;;;;;;;;;;;;;15.84;73.15;99997.06;5037164;28;19966;-62
2021/09/18 07:52:49;;;;;;;;;;;;;;;15.87;73.18;99998.81;5036698;28;19975;-61
2021/09/18 07:55:33;;;;;;;;;;;;;;;15.87;73.27;100004.06;5036121;28;20395;-62
2021/09/18 07:58:17;;;;;;;;;;;;;;;15.88;73.30;100001.44;5036960;28;20335;-62
2021/09/18 08:01:01;;;;;;;;;;;;;;;15.90;73.18;100004.03;5037194;28;20280;-62
2021/09/18 08:03:45;;;;;;;;;;;;;;;15.91;73.21;100008.38;5036605;28;20491;-62
2021/09/18 08:06:29;;;;;;;;;;;;;;;15.92;73.22;100005.75;5036915;28;19928;-62
2021/09/18 08:09:16;;;;;;;;;;;;;;;15.95;73.23;100012.72;5037205;28;19928;-62
2021/09/18 08:12:02;;;;;;;;;;;;;;;15.95;73.29;100010.97;5036510;28;20406;-62
2021/09/18 08:14:47;;;;;;;;;;;;;;;15.97;73.21;100010.94;5050376;28;19987;-62
2021/09/18 08:17:31;;;;;;;;;;;;;;;15.97;73.20;100006.59;5050284;28;19947;-62
2021/09/18 08:20:15;;;;;;;;;;;;;;;16.00;73.23;100010.06;5049914;28;19928;-61
2021/09/18 08:23:03;;;;;;;;;;;;;;;16.01;73.20;100006.59;5036892;28;19964;-64
2021/09/18 08:25:47;;;;;;;;;;;;;;;16.02;73.18;100000.47;5036909;28;19928;-62
2021/09/18 08:28:31;;;;;;;;;;;;;;;16.05;73.25;100008.28;5036646;28;19927;-62
2021/09/18 08:31:17;;;;;;;;;;;;;;;16.05;73.24;100003.94;5036840;28;19928;-62
2021/09/18 08:34:02;;;;;;;;;;;;;;;16.07;73.18;100007.41;5035634;28;19928;-62
2021/09/18 08:36:46;;;;;;;;;;;;;;;16.09;73.16;100008.28;5035380;28;19975;-62
2021/09/18 08:39:31;;;;;;;;;;;;;;;16.10;73.12;100014.34;5036264;28;19963;-62
2021/09/18 08:42:15;;;;;;;;;;;;;;;16.12;73.16;100010.84;5035381;28;19944;-62
2021/09/18 08:44:58;;;;;;;;;;;;;;;16.13;73.42;100017.81;5036715;28;20438;-62
2021/09/18 08:47:43;;;;;;;;;;;;;;;16.17;73.13;100017.78;5035952;28;20391;-62
2021/09/18 08:50:27;;;;;;;;;;;;;;;16.18;73.33;100009.06;5036302;28;19928;-63
2021/09/18 08:53:11;;;;;;;;;;;;;;;16.22;73.10;100021.25;5048495;28;20058;-62
2021/09/18 08:55:56;;;;;;;;;;;;;;;16.23;72.88;100018.59;5035935;28;19932;-62
2021/09/18 08:58:40;;;;;;;;;;;;;;;16.25;73.03;100014.22;5035452;28;19928;-62
2021/09/18 09:01:26;;;;;;;;;;;;;;;16.28;73.02;100018.56;5035812;28;20395;-62
2021/09/18 09:04:10;;;;;;;;;;;;;;;16.29;73.19;100023.78;5035490;28;20012;-62
2021/09/18 09:06:54;;;;;;;;;;;;;;;16.32;73.09;100020.28;5035097;28;20047;-62
2021/09/18 09:09:51;;;;;;;;;;;;;;;16.35;73.08;100019.41;5035694;28;19975;-62
2021/09/18 09:12:36;;;;;;;;;;;;;;;16.38;73.09;100020.25;5035355;28;19932;-62
2021/09/18 09:15:24;;;;;;;;;;;;;;;16.40;73.19;100023.72;5034961;28;19928;-62
2021/09/18 09:18:16;;;;;;;;;;;;;;;16.41;73.01;100019.34;5034959;28;20311;-63
2021/09/18 09:21:11;;;;;;;;;;;;;;;16.45;73.00;100018.44;5034974;28;19967;-63
2021/09/18 09:24:03;;;;;;;;;;;;;;;16.47;73.18;100019.28;5035573;28;19927;-62
2021/09/18 09:27:04;;;;;;;;;;;;;;;16.50;73.18;100014.06;5035815;28;20272;-62
2021/09/18 09:29:53;;;;;;;;;;;;;;;16.52;73.13;100014.03;5034512;28;20423;-62
2021/09/18 09:32:38;;;;;;;;;;;;;;;16.54;73.10;100012.25;5034131;28;19967;-62
2021/09/18 09:35:21;;;;;;;;;;;;;;;16.58;73.13;100006.13;5034840;28;20336;-62
2021/09/18 09:38:07;;;;;;;;;;;;;;;16.60;73.11;100009.56;5035352;28;19975;-62
2021/09/18 09:40:51;;;;;;;;;;;;;;;16.63;73.04;100006.06;5048590;28;19927;-63
2021/09/18 09:43:43;;;;;;;;;;;;;;;16.65;72.99;100004.31;5035493;28;20383;-62
2021/09/18 09:46:27;;;;;;;;;;;;;;;16.67;73.03;100003.41;5034673;28;19928;-63
2021/09/18 09:49:18;;;;;;;;;;;;;;;16.70;73.00;100005.13;5034958;28;19928;-64
2021/09/18 09:52:15;;;;;;;;;;;;;;;16.72;72.76;100004.25;5033670;28;20368;-63
2021/09/18 09:55:07;;;;;;;;;;;;;;;16.74;72.92;100005.06;5035181;28;20320;-64
2021/09/18 09:58:01;;;;;;;;;;;;;;;16.77;72.84;100003.31;5034803;28;20423;-63
2021/09/18 10:00:49;;;;;;;;;;;;;;;16.78;72.90;100000.69;5048074;28;19983;-63
2021/09/18 10:03:33;;;;;;;;;;;;;;;16.80;72.87;99995.44;5047528;28;19927;-63
2021/09/18 10:06:20;;;;;;;;;;;;;;;16.82;72.84;100004.13;5033790;28;19943;-63
2021/09/18 10:09:04;;;;;;;;;;;;;;;16.82;72.72;100006.75;5033342;28;20314;-63
2021/09/18 10:11:49;;;;;;;;;;;;;;;16.83;72.79;99998.88;5034691;28;20284;-63
2021/09/18 10:14:34;;;;;;;;;;;;;;;16.87;72.55;100000.59;5034388;28;19951;-63
2021/09/18 10:17:18;;;;;;;;;;;;;;;16.90;72.74;99994.44;5034850;28;20273;-63
2021/09/18 10:23:14;;;;;;;;;;;;;;;16.93;72.42;99993.56;5026213;28;20025;-63
2021/09/18 10:25:59;;;;;;;;;;;;;;;16.94;72.62;99990.91;5033256;28;19975;-63
2021/09/18 10:28:46;;;;;;;;;;;;;;;16.96;72.58;99985.72;5047648;28;19944;-63
2021/09/18 10:31:30;;;;;;;;;;;;;;;16.96;72.43;99983.09;5033609;28;19928;-63
2021/09/18 10:34:22;;;;;;;;;;;;;;;16.97;72.42;99990.91;5034571;28;20284;-64
2021/09/18 10:37:06;;;;;;;;;;;;;;;16.99;72.43;99985.66;5033289;28;19955;-64
2021/09/18 10:40:10;;;;;;;;;;;;;;;17.00;72.47;99980.41;5034170;28;20466;-63
2021/09/18 10:42:54;;;;;;;;;;;;;;;17.01;72.44;99982.16;5033257;28;19928;-63
2021/09/18 10:45:42;;;;;;;;;;;;;;;17.03;72.31;99979.50;5033664;28;19928;-63
2021/09/18 10:48:36;;;;;;;;;;;;;;;17.04;72.22;99981.25;5033944;28;19932;-63
2021/09/18 10:51:34;;;;;;;;;;;;;;;17.04;72.19;99982.13;5033063;28;19928;-62
2021/09/18 10:54:18;;;;;;;;;;;;;;;17.04;72.17;99978.63;5033330;28;19968;-64
2021/09/18 10:57:04;;;;;;;;;;;;;;;17.06;72.35;99976.84;5034255;28;19975;-63
2021/09/18 10:59:49;;;;;;;;;;;;;;;17.07;72.33;99975.09;5047195;28;19928;-63
2021/09/18 11:02:33;;;;;;;;;;;;;;;17.08;72.24;99967.25;5033659;28;19992;-63
2021/09/18 11:05:20;;;;;;;;;;;;;;;17.09;72.07;99968.09;5033717;28;20015;-63
2021/09/18 11:08:19;;;;;;;;;;;;;;;17.10;72.07;99969.81;5033634;28;20300;-63
2021/09/18 11:11:09;;;;;;;;;;;;;;;17.12;72.25;99957.59;5034055;28;19967;-63
2021/09/18 11:13:55;;;;;;;;;;;;;;;17.12;72.27;99958.47;5047189;28;19947;-63
2021/09/18 11:16:41;;;;;;;;;;;;;;;17.15;72.24;99962.78;5035715;28;19971;-62
2021/09/18 11:19:25;;;;;;;;;;;;;;;17.17;71.93;99958.41;5037863;28;19971;-63
2021/09/18 11:22:15;;;;;;;;;;;;;;;17.17;72.16;99961.03;5037677;28;20062;-63
2021/09/18 11:25:17;;;;;;;;;;;;;;;17.18;72.17;99954.91;5037665;28;19928;-63
2021/09/18 11:28:01;;;;;;;;;;;;;;;17.20;72.13;99959.22;5037262;28;20343;-63
2021/09/18 11:30:53;;;;;;;;;;;;;;;17.22;72.04;99959.19;5038442;28;19954;-62
2021/09/18 11:33:38;;;;;;;;;;;;;;;17.23;71.86;99958.31;5036798;28;20010;-63
2021/09/18 11:36:22;;;;;;;;;;;;;;;17.25;72.01;99955.69;5036538;28;20395;-63
2021/09/18 11:39:09;;;;;;;;;;;;;;;17.26;72.05;99954.81;5038375;28;19936;-63
2021/09/18 11:42:07;;;;;;;;;;;;;;;17.28;71.76;99953.88;5036931;28;19944;-63
2021/09/18 11:44:55;;;;;;;;;;;;;;;17.30;71.92;99946.88;5036800;28;19999;-63
2021/09/18 11:47:42;;;;;;;;;;;;;;;17.31;71.95;99940.75;5036785;28;19975;-63
2021/09/18 11:50:30;;;;;;;;;;;;;;;17.32;71.89;99939.00;5036784;28;20402;-63
2021/09/18 11:53:14;;;;;;;;;;;;;;;17.33;71.78;99939.00;5036447;28;19944;-63
2021/09/18 11:55:58;;;;;;;;;;;;;;;17.34;71.72;99940.72;5037332;28;20391;-63
2021/09/18 11:58:42;;;;;;;;;;;;;;;17.35;71.88;99934.59;5037320;28;19928;-63
2021/09/18 12:01:28;;;;;;;;;;;;;;;17.37;71.86;99934.56;5036997;28;19959;-63
2021/09/18 12:04:15;;;;;;;;;;;;;;;17.39;71.74;99924.06;5037166;28;19963;-63
2021/09/18 12:07:02;;;;;;;;;;;;;;;17.40;71.67;99931.03;5035378;28;21055;-63
2021/09/18 12:09:45;;;;;;;;;;;;;;;17.40;71.68;99931.91;5036553;28;20079;-63
2021/09/18 12:12:35;;;;;;;;;;;;;;;17.41;71.75;99917.94;5036543;28;19928;-63
2021/09/18 12:15:28;;;;;;;;;;;;;;;17.43;71.68;99929.25;5036613;28;19972;-62
2021/09/18 12:18:23;;;;;;;;;;;;;;;17.43;71.85;99923.13;5036468;28;20499;-62
2021/09/18 12:21:09;;;;;;;;;;;;;;;17.43;71.61;99921.41;5035719;28;19929;-63
2021/09/18 12:24:01;;;;;;;;;;;;;;;17.45;71.80;99918.75;5036548;28;19944;-63
2021/09/18 12:26:48;;;;;;;;;;;;;;;17.46;71.80;99916.09;5049392;28;20407;-63
2021/09/18 12:29:32;;;;;;;;;;;;;;;17.47;71.76;99919.59;5036715;28;19982;-63
2021/09/18 12:32:19;;;;;;;;;;;;;;;17.47;71.82;99909.97;5036466;28;19963;-62
2021/09/18 12:35:10;;;;;;;;;;;;;;;17.48;71.64;99919.56;5036811;28;19968;-63
2021/09/18 12:37:58;;;;;;;;;;;;;;;17.48;71.69;99913.47;5036413;28;20051;-63
2021/09/18 12:40:44;;;;;;;;;;;;;;;17.48;71.65;99903.84;5036246;28;19928;-63
2021/09/18 12:43:30;;;;;;;;;;;;;;;17.47;71.61;99906.50;5036645;28;19944;-63
2021/09/18 12:46:14;;;;;;;;;;;;;;;17.47;71.57;99907.34;5049745;28;19928;-63
2021/09/18 12:48:59;;;;;;;;;;;;;;;17.47;71.38;99902.09;5036371;28;20375;-63
2021/09/18 12:51:47;;;;;;;;;;;;;;;17.48;71.65;99902.97;5049169;28;19928;-62
2021/09/18 12:54:40;;;;;;;;;;;;;;;17.48;71.55;99901.22;5049339;28;20035;-63
2021/09/18 12:57:30;;;;;;;;;;;;;;;17.48;71.42;99893.34;5035683;28;19970;-63
2021/09/18 13:00:14;;;;;;;;;;;;;;;17.50;71.56;99903.84;5035637;28;19979;-63
2021/09/18 13:03:18;;;;;;;;;;;;;;;17.50;71.69;99896.81;5036118;28;20019;-63
2021/09/18 13:06:09;;;;;;;;;;;;;;;17.53;71.58;99901.13;5036010;28;19928;-63
2021/09/18 13:08:58;;;;;;;;;;;;;;;17.54;71.45;99897.63;5034769;28;19928;-63
2021/09/18 13:11:47;;;;;;;;;;;;;;;17.54;71.45;99892.41;5034907;28;19928;-63
2021/09/18 13:14:33;;;;;;;;;;;;;;;17.54;71.39;99888.91;5049060;28;19964;-63
2021/09/18 13:17:39;;;;;;;;;;;;;;;17.55;71.29;99888.88;5048675;28;20006;-63
2021/09/18 13:20:28;;;;;;;;;;;;;;;17.55;71.39;99883.66;5035484;28;20087;-63
2021/09/18 13:23:12;;;;;;;;;;;;;;;17.56;71.41;99885.38;5035101;28;19928;-63
2021/09/18 13:26:00;;;;;;;;;;;;;;;17.56;71.34;99880.13;5035444;28;19974;-63
2021/09/18 13:28:50;;;;;;;;;;;;;;;17.58;71.36;99877.50;5034545;28;20009;-62
2021/09/18 13:31:36;;;;;;;;;;;;;;;17.58;71.29;99888.84;5034334;28;19971;-62
2021/09/18 13:34:23;;;;;;;;;;;;;;;17.59;71.19;99876.63;5034384;28;19928;-62
2021/09/18 13:37:07;;;;;;;;;;;;;;;17.59;71.14;99877.47;5034791;28;20399;-62
2021/09/18 13:39:53;;;;;;;;;;;;;;;17.60;71.15;99881.84;5034331;28;19928;-62
2021/09/18 13:42:37;;;;;;;;;;;;;;;17.60;71.15;99884.44;5035163;28;19975;-63
2021/09/18 13:45:21;;;;;;;;;;;;;;;17.60;71.22;99876.59;5048122;28;20440;-61
2021/09/18 13:48:05;;;;;;;;;;;;;;;17.59;71.04;99869.63;5035413;28;19967;-61
2021/09/18 13:50:51;;;;;;;;;;;;;;;17.60;71.16;99873.09;5035019;28;19932;-61
2021/09/18 13:53:37;;;;;;;;;;;;;;;17.59;71.14;99872.25;5047788;28;20030;-61
2021/09/18 13:56:21;;;;;;;;;;;;;;;17.59;70.93;99868.78;5034928;28;19928;-62
2021/09/18 13:59:05;;;;;;;;;;;;;;;17.58;71.05;99862.66;5035260;28;19978;-61
2021/09/18 14:01:49;;;;;;;;;;;;;;;17.59;70.90;99869.63;5035090;28;20430;-62
2021/09/18 14:04:33;;;;;;;;;;;;;;;17.59;70.97;99868.78;5035256;28;20456;-62
2021/09/18 14:07:17;;;;;;;;;;;;;;;17.60;71.11;99865.22;5047729;28;19975;-61
2021/09/18 14:10:01;;;;;;;;;;;;;;;17.59;70.98;99860.91;5034872;28;19927;-61
2021/09/18 14:12:47;;;;;;;;;;;;;;;17.60;71.08;99862.59;5034393;28;19967;-64
2021/09/18 14:15:31;;;;;;;;;;;;;;;17.59;70.90;99858.28;5034982;28;20388;-61
2021/09/18 14:18:15;;;;;;;;;;;;;;;17.61;70.96;99861.72;5034942;28;20066;-63
2021/09/18 14:21:01;;;;;;;;;;;;;;;17.61;71.02;99856.47;5034387;28;19968;-63
2021/09/18 14:23:46;;;;;;;;;;;;;;;17.62;71.01;99855.59;5033922;28;19975;-63
2021/09/18 14:26:30;;;;;;;;;;;;;;;17.63;70.97;99854.72;5034221;28;19928;-62